^^
Grace C. Lehan Memorial Weather Station Historical Data
Daily Summary for September 28, 2022 Units:  English    Metric   Both
Daily Weekly Monthly Yearly
  High: Low: Average:
Temperature: 70.4 °F 49.9 °F 60 °F
Dew Point: 56.6 °F 47.7 °F 51.9 °F
Humidity: 93% 57% 76%
Wind Speed: 5.8mph 0mph 0.4mph
Wind Gust: 14mph - -
Wind- - WNW
Pressure: 30.20 in 29.90 in -
Precipitation: 0.00 in    
 
 
Tabular Data for September 28, 2022
Time Temperature Dew Point Pressure Wind Wind Speed Wind Gust Humidity Rainfall Rate (Hourly) solar
00:00 55.4 °F 50.3 °F 29.90 in Calm   3 mph 83% 0.00 in 0 W/m2
00:09 55.3 °F 50.2 °F 29.90 in Calm     83% 0.00 in 0 W/m2
00:14 55.2 °F 50.1 °F 29.90 in Calm     83% 0.00 in 0 W/m2
00:19 55.1 °F 50.3 °F 29.90 in Calm     83.8% 0.00 in 0 W/m2
00:24 55 °F 50.3 °F 29.90 in West 0.5 mph 4 mph 84% 0.00 in 0 W/m2
00:29 55 °F 50.3 °F 29.90 in WSW 0.7 mph 9 mph 84% 0.00 in 0 W/m2
00:34 55 °F 50.3 °F 29.90 in SW 0.2 mph 9 mph 84% 0.00 in 0 W/m2
00:39 55.1 °F 50.3 °F 29.90 in Calm   6 mph 84% 0.00 in 0 W/m2
00:44 55 °F 50.3 °F 29.91 in SW 0.2 mph 6 mph 84% 0.00 in 0 W/m2
00:49 55 °F 50.3 °F 29.91 in Calm   6 mph 84% 0.00 in 0 W/m2
00:54 55 °F 50.3 °F 29.91 in Calm   6 mph 84% 0.00 in 0 W/m2
00:59 55 °F 50.3 °F 29.91 in SW 0.1 mph 6 mph 84% 0.00 in 0 W/m2
01:04 55 °F 50.2 °F 29.91 in Calm   6 mph 84% 0.00 in 0 W/m2
01:09 54.9 °F 50.2 °F 29.91 in Calm   2 mph 84% 0.00 in 0 W/m2
01:14 54.9 °F 50.2 °F 29.92 in Calm   2 mph 84% 0.00 in 0 W/m2
01:19 54.9 °F 50.1 °F 29.92 in Calm   2 mph 84% 0.00 in 0 W/m2
01:24 54.8 °F 50 °F 29.92 in Calm   2 mph 84% 0.00 in 0 W/m2
01:29 54.6 °F 49.9 °F 29.91 in Calm   2 mph 84% 0.00 in 0 W/m2
01:34 54.5 °F 49.7 °F 29.91 in Calm   2 mph 84% 0.00 in 0 W/m2
01:39 54.3 °F 49.6 °F 29.92 in Calm     84% 0.00 in 0 W/m2
01:44 54.2 °F 49.6 °F 29.92 in Calm     84.4% 0.00 in 0 W/m2
01:49 54.1 °F 49.7 °F 29.92 in Calm     85% 0.00 in 0 W/m2
01:54 54 °F 49.6 °F 29.92 in Calm     85% 0.00 in 0 W/m2
01:59 53.9 °F 49.5 °F 29.92 in Calm     85% 0.00 in 0 W/m2
02:04 53.7 °F 49.3 °F 29.92 in Calm     85% 0.00 in 0 W/m2
02:09 53.6 °F 49.2 °F 29.93 in Calm     85% 0.00 in 0 W/m2
02:14 53.5 °F 49.1 °F 29.93 in Calm     85% 0.00 in 0 W/m2
02:19 53.3 °F 49.2 °F 29.93 in Calm     85.8% 0.00 in 0 W/m2
02:24 53.2 °F 49.1 °F 29.93 in Calm     86% 0.00 in 0 W/m2
02:29 53.1 °F 49 °F 29.92 in Calm     86% 0.00 in 0 W/m2
02:34 53 °F 49 °F 29.93 in Calm     86.1% 0.00 in 0 W/m2
02:39 52.9 °F 49.1 °F 29.92 in Calm     87% 0.00 in 0 W/m2
02:44 52.8 °F 49 °F 29.93 in Calm     87% 0.00 in 0 W/m2
02:49 52.8 °F 49 °F 29.93 in Calm     87% 0.00 in 0 W/m2
02:54 52.8 °F 49 °F 29.93 in Calm     87% 0.00 in 0 W/m2
02:59 52.8 °F 49 °F 29.93 in Calm     87% 0.00 in 0 W/m2
03:04 52.8 °F 49 °F 29.93 in Calm     87% 0.00 in 0 W/m2
03:09 52.7 °F 48.9 °F 29.93 in Calm     87% 0.00 in 0 W/m2
03:14 52.6 °F 48.8 °F 29.93 in Calm     87% 0.00 in 0 W/m2
03:19 52.4 °F 48.7 °F 29.93 in Calm     87% 0.00 in 0 W/m2
03:24 52.3 °F 48.9 °F 29.92 in Calm     87.9% 0.00 in 0 W/m2
03:29 52.2 °F 48.8 °F 29.92 in Calm     88% 0.00 in 0 W/m2
03:34 52.1 °F 48.7 °F 29.92 in Calm     88% 0.00 in 0 W/m2
03:39 52 °F 48.5 °F 29.93 in Calm     88% 0.00 in 0 W/m2
03:44 51.9 °F 48.6 °F 29.93 in Calm     88.5% 0.00 in 0 W/m2
03:49 51.8 °F 48.8 °F 29.93 in Calm     89.4% 0.00 in 0 W/m2
03:54 51.8 °F 48.7 °F 29.93 in Calm     89% 0.00 in 0 W/m2
03:59 51.8 °F 48.6 °F 29.93 in Calm     89% 0.00 in 0 W/m2
04:00 51.7 °F 48.6 °F 29.93 in Calm     89% 0.00 in 0 W/m2
04:09 51.6 °F 48.4 °F 29.93 in SW 0.1 mph 3 mph 89% 0.00 in 0 W/m2
04:14 51.4 °F 48.3 °F 29.93 in Calm   3 mph 89% 0.00 in 0 W/m2
04:19 51.3 °F 48.2 °F 29.94 in Calm   3 mph 89% 0.00 in 0 W/m2
04:24 51.3 °F 48.5 °F 29.94 in Calm   3 mph 90% 0.00 in 0 W/m2
04:29 51.3 °F 48.5 °F 29.94 in Calm   3 mph 90% 0.00 in 0 W/m2
04:33 51.3 °F 48.4 °F 29.94 in Calm   3 mph 90% 0.00 in 0 W/m2
04:39 51.1 °F 48.3 °F 29.94 in Calm     90% 0.00 in 0 W/m2
04:44 51 °F 48.2 °F 29.94 in Calm     90% 0.00 in 0 W/m2
04:49 51 °F 48.1 °F 29.94 in Calm     90% 0.00 in 0 W/m2
04:54 50.9 °F 48.1 °F 29.94 in WSW 0.4 mph 3 mph 90% 0.00 in 0 W/m2
04:59 50.9 °F 48.3 °F 29.94 in WSW 0.1 mph 3 mph 90.7% 0.00 in 0 W/m2
05:04 51 °F 48.4 °F 29.94 in Calm   3 mph 91% 0.00 in 0 W/m2
05:09 51.1 °F 48.5 °F 29.94 in Calm     91% 0.00 in 0 W/m2
05:14 51 °F 48.5 °F 29.94 in Calm     91% 0.00 in 0 W/m2
05:19 50.9 °F 48.4 °F 29.94 in Calm     91% 0.00 in 0 W/m2
05:24 50.8 °F 48.3 °F 29.95 in Calm     91% 0.00 in 0 W/m2
05:29 50.7 °F 48.2 °F 29.95 in Calm     91% 0.00 in 0 W/m2
05:34 50.7 °F 48.2 °F 29.95 in Calm     91% 0.00 in 0 W/m2
05:39 50.7 °F 48.2 °F 29.95 in Calm     91% 0.00 in 0 W/m2
05:44 50.6 °F 48.1 °F 29.95 in WSW 0.1 mph 3 mph 91% 0.00 in 0 W/m2
05:49 50.6 °F 48.1 °F 29.95 in Calm   3 mph 91% 0.00 in 0 W/m2
05:54 50.6 °F 48.1 °F 29.95 in Calm   3 mph 91% 0.00 in 0 W/m2
05:59 50.6 °F 48.1 °F 29.95 in Calm   3 mph 91% 0.00 in 0 W/m2
06:04 50.5 °F 48 °F 29.95 in Calm   3 mph 91% 0.00 in 0 W/m2
06:09 50.5 °F 48.1 °F 29.95 in Calm     91.5% 0.00 in 0 W/m2
06:14 50.5 °F 48.3 °F 29.96 in Calm     92% 0.00 in 0 W/m2
06:19 50.6 °F 48.4 °F 29.96 in Calm     92% 0.00 in 0 W/m2
06:24 50.5 °F 48.2 °F 29.96 in Calm     91.8% 0.00 in 0 W/m2
06:28 50.4 °F 47.9 °F 29.96 in Calm     91% 0.00 in 0 W/m2
06:30 50.3 °F 47.8 °F 29.96 in Calm     91% 0.00 in 0 W/m2
07:00 50.1 °F 47.9 °F 29.97 in Calm     92% 0.00 in 2 W/m2
07:30 49.9 °F 47.7 °F 29.98 in Calm     92% 0.00 in 12 W/m2
08:04 51.5 °F 49.5 °F 29.98 in Calm     92.9% 0.00 in 23 W/m2
08:09 51.7 °F 49.8 °F 29.99 in WSW 0.1 mph 2 mph 93% 0.00 in 23 W/m2
08:14 52 °F 50 °F 29.99 in WSW 0.6 mph 5 mph 92.8% 0.00 in 25 W/m2
08:19 52.3 °F 50.1 °F 29.99 in WSW 1 mph 9 mph 92% 0.00 in 26 W/m2
08:24 52.7 °F 50.3 °F 29.99 in West 0.2 mph 9 mph 91.7% 0.00 in 28 W/m2
08:29 53 °F 50.4 °F 29.99 in Calm   9 mph 91% 0.00 in 32 W/m2
08:34 53.3 °F 50.6 °F 29.99 in West 0.1 mph 9 mph 90.6% 0.00 in 35 W/m2
08:39 53.6 °F 50.7 °F 29.99 in Calm   2 mph 89.6% 0.00 in 42 W/m2
08:44 54 °F 50.8 °F 29.99 in Calm   2 mph 89% 0.00 in 49 W/m2
08:49 54.3 °F 50.9 °F 30.00 in Calm   2 mph 88.2% 0.00 in 54 W/m2
08:54 54.7 °F 51.1 °F 29.99 in Calm   2 mph 87.7% 0.00 in 63 W/m2
08:59 55.1 °F 51.4 °F 30.00 in Calm   2 mph 87.1% 0.00 in 93 W/m2
09:04 55.6 °F 51.7 °F 30.00 in Calm   2 mph 86.7% 0.00 in 417 W/m2
09:09 56.2 °F 52.1 °F 30.00 in Calm     86% 0.00 in 436 W/m2
09:14 57.4 °F 53 °F 30.00 in Calm     85.1% 0.00 in 450 W/m2
09:19 58.7 °F 53.6 °F 30.00 in Calm     82.9% 0.00 in 468 W/m2
09:24 60.3 °F 54.3 °F 30.00 in Calm     80.6% 0.00 in 490 W/m2
09:29 61.8 °F 54.4 °F 30.00 in Calm     76.8% 0.00 in 504 W/m2
09:34 62.9 °F 54.7 °F 30.00 in Calm     74.6% 0.00 in 522 W/m2
09:39 64.1 °F 55.4 °F 30.01 in Calm     73.4% 0.00 in 534 W/m2
09:44 65 °F 55.7 °F 30.01 in Calm     71.9% 0.00 in 543 W/m2
09:49 65.8 °F 55.4 °F 30.01 in West 0.5 mph 3 mph 69% 0.00 in 552 W/m2
09:54 66.3 °F 55.7 °F 30.01 in West 0.5 mph 6 mph 68.8% 0.00 in 563 W/m2
09:59 66.6 °F 55.1 °F 30.01 in West 1.8 mph 9 mph 66.3% 0.00 in 575 W/m2
10:04 66.8 °F 54.7 °F 30.01 in WNW 1.7 mph 9 mph 65.2% 0.00 in 584 W/m2
10:09 67 °F 55.1 °F 30.01 in WNW 0.1 mph 7 mph 65.6% 0.00 in 598 W/m2
10:14 67.2 °F 55 °F 30.02 in WNW 0.7 mph 7 mph 65% 0.00 in 606 W/m2
10:19 67.4 °F 55.3 °F 30.02 in WNW 1.2 mph 7 mph 65.1% 0.00 in 626 W/m2
10:24 67.8 °F 55.9 °F 30.02 in WNW 0.7 mph 7 mph 65.8% 0.00 in 636 W/m2
10:29 68.1 °F 55.9 °F 30.02 in WNW 0.5 mph 7 mph 65.1% 0.00 in 663 W/m2
10:34 68.4 °F 55.8 °F 30.02 in Calm   7 mph 64% 0.00 in 663 W/m2
10:39 68.6 °F 55.4 °F 30.02 in Calm   2 mph 62.8% 0.00 in 659 W/m2
10:44 68.9 °F 55.6 °F 30.02 in WNW 0.1 mph 2 mph 62.6% 0.00 in 671 W/m2
10:49 69.2 °F 55.6 °F 30.02 in West 0.4 mph 5 mph 61.7% 0.00 in 677 W/m2
10:54 69.8 °F 56.6 °F 30.02 in West 0.2 mph 6 mph 62.8% 0.00 in 691 W/m2
10:59 70.4 °F 56.3 °F 30.02 in WSW 1.1 mph 6 mph 60.9% 0.00 in 714 W/m2
11:04 70.4 °F 55.6 °F 30.02 in West 3.2 mph 10 mph 59.4% 0.00 in 715 W/m2
11:09 70.3 °F 55.9 °F 30.02 in West 0.8 mph 10 mph 60.3% 0.00 in 722 W/m2
11:14 70.3 °F 55.9 °F 30.03 in WNW 1.2 mph 10 mph 60.4% 0.00 in 738 W/m2
11:19 70.2 °F 55.1 °F 30.03 in WNW 0.2 mph 10 mph 58.9% 0.00 in 624 W/m2
11:24 69.9 °F 55.6 °F 30.03 in WNW 1.5 mph 10 mph 60.4% 0.00 in 659 W/m2
11:29 69.7 °F 55.2 °F 30.03 in WNW 2.2 mph 10 mph 59.9% 0.00 in 650 W/m2
11:34 69.5 °F 55.1 °F 30.03 in WNW 0.1 mph 10 mph 60.2% 0.00 in 492 W/m2
11:39 69.5 °F 56.1 °F 30.03 in NNW 1.5 mph 9 mph 62.3% 0.00 in 492 W/m2
11:44 69.6 °F 55.8 °F 30.03 in NNW 2 mph 9 mph 61.4% 0.00 in 153 W/m2
11:49 69.6 °F 54.9 °F 30.03 in NNW 0.6 mph 9 mph 59.6% 0.00 in 151 W/m2
11:54 69.4 °F 55.3 °F 30.03 in WNW 1.2 mph 9 mph 60.7% 0.00 in 207 W/m2
11:59 69.2 °F 54.4 °F 30.03 in NW 0.1 mph 9 mph 59.3% 0.00 in 200 W/m2
12:04 69 °F 54.7 °F 30.03 in West 5.8 mph 7 mph 60.4% 0.00 in 227 W/m2
12:09 68.8 °F 54.4 °F 30.03 in West 2.1 mph 9 mph 60% 0.00 in 253 W/m2
12:10 68.7 °F 54.3 °F 30.03 in WNW 0.4 mph 9 mph 60% 0.00 in 171 W/m2
12:30 68.2 °F 54.7 °F 30.03 in West 2 mph 11 mph 62% 0.00 in 230 W/m2
14:00 67.2 °F 53.3 °F 30.04 in WNW 2 mph 11 mph 61% 0.00 in 115 W/m2
14:30 68.4 °F 53.1 °F 30.03 in WNW 2 mph 10 mph 58% 0.00 in 115 W/m2
15:00 69.4 °F 53.5 °F 30.03 in WNW 3 mph 14 mph 57% 0.00 in 123 W/m2
15:30 68.1 °F 52.8 °F 30.04 in NW 2 mph 11 mph 58% 0.00 in 110 W/m2
16:04 68.4 °F 53.7 °F 30.04 in WNW 1.4 mph 11 mph 59.3% 0.00 in 110 W/m2
16:09 68.6 °F 53.7 °F 30.04 in WNW 1.4 mph 9 mph 59.1% 0.00 in 72 W/m2
16:14 68.8 °F 54.4 °F 30.04 in WNW 0.9 mph 9 mph 60.1% 0.00 in 167 W/m2
16:19 69.1 °F 54.8 °F 30.04 in WNW 0.5 mph 9 mph 60.4% 0.00 in 167 W/m2
16:24 69.3 °F 53.7 °F 30.04 in WNW 3.9 mph 10 mph 57.6% 0.00 in 137 W/m2
16:29 69.4 °F 53.6 °F 30.05 in West 0.3 mph 10 mph 57.3% 0.00 in 107 W/m2
16:34 69.4 °F 54 °F 30.05 in NNW 1.3 mph 10 mph 58% 0.00 in 77 W/m2
16:39 69.2 °F 53.9 °F 30.05 in WNW 0.9 mph 7 mph 58.2% 0.00 in 76 W/m2
16:44 69.1 °F 53.9 °F 30.05 in West 0.1 mph 7 mph 58.4% 0.00 in 63 W/m2
16:49 69.1 °F 53.8 °F 30.05 in WNW 0.3 mph 7 mph 58.3% 0.00 in 62 W/m2
16:54 68.9 °F 53.8 °F 30.05 in NNW 0.3 mph 7 mph 58.4% 0.00 in 65 W/m2
16:59 68.8 °F 53.7 °F 30.06 in NNW 0.3 mph 7 mph 58.6% 0.00 in 47 W/m2
17:04 68.7 °F 54 °F 30.06 in Calm   7 mph 59.5% 0.00 in 28 W/m2
17:09 68.6 °F 53.8 °F 30.06 in NNW 0.1 mph 2 mph 59.3% 0.00 in 26 W/m2
17:14 68.4 °F 53.6 °F 30.06 in Calm   2 mph 59% 0.00 in 25 W/m2
17:19 68.3 °F 53.8 °F 30.06 in Calm   2 mph 59.7% 0.00 in 25 W/m2
17:24 68.2 °F 53.9 °F 30.06 in Calm   2 mph 60.2% 0.00 in 25 W/m2
17:29 68.1 °F 54 °F 30.07 in NW 0.3 mph 3 mph 60.8% 0.00 in 25 W/m2
17:34 67.9 °F 54 °F 30.07 in Calm   3 mph 61% 0.00 in 16 W/m2
17:39 67.8 °F 53.8 °F 30.07 in Calm     61% 0.00 in 25 W/m2
17:44 67.6 °F 53.8 °F 30.08 in Calm   1 mph 61.3% 0.00 in 26 W/m2
17:49 67.4 °F 54 °F 30.08 in Calm   1 mph 62% 0.00 in 23 W/m2
17:54 67.2 °F 53.8 °F 30.08 in Calm   1 mph 62% 0.00 in 23 W/m2
17:59 67.1 °F 54 °F 30.08 in Calm   1 mph 62.8% 0.00 in 21 W/m2
18:04 67 °F 53.9 °F 30.08 in Calm   1 mph 62.8% 0.00 in 16 W/m2
18:09 66.8 °F 53.9 °F 30.08 in Calm     63.1% 0.00 in 16 W/m2
18:14 66.7 °F 54.2 °F 30.08 in Calm     64.3% 0.00 in 12 W/m2
18:19 66.5 °F 54.7 °F 30.08 in Calm     65.7% 0.00 in 7 W/m2
18:24 66.3 °F 55 °F 30.08 in Calm     67% 0.00 in 5 W/m2
18:29 66.1 °F 54.8 °F 30.08 in Calm     67% 0.00 in 0 W/m2
18:34 65.9 °F 54.6 °F 30.09 in NW 0.1 mph 2 mph 67% 0.00 in 0 W/m2
18:39 65.7 °F 54.5 °F 30.09 in NW 0.2 mph 5 mph 67% 0.00 in 0 W/m2
18:44 65.5 °F 54.3 °F 30.09 in NW 0.1 mph 5 mph 67% 0.00 in 0 W/m2
18:49 65.4 °F 54.2 °F 30.09 in WNW 0.5 mph 6 mph 67% 0.00 in 0 W/m2
18:54 65.3 °F 54 °F 30.10 in WNW 1 mph 6 mph 67% 0.00 in 0 W/m2
18:59 65.1 °F 53.9 °F 30.10 in WNW 0.7 mph 6 mph 67% 0.00 in 0 W/m2
19:04 65 °F 53.9 °F 30.10 in WNW 0.1 mph 6 mph 67.2% 0.00 in 0 W/m2
19:09 64.9 °F 54.1 °F 30.11 in WNW 0.1 mph 2 mph 68% 0.00 in 0 W/m2
19:14 64.8 °F 53.7 °F 30.12 in WNW 0.4 mph 4 mph 67.4% 0.00 in 0 W/m2
19:19 64.7 °F 53.9 °F 30.12 in WNW 0.2 mph 4 mph 68% 0.00 in 0 W/m2
19:24 64.5 °F 53.7 °F 30.12 in Calm   4 mph 68% 0.00 in 0 W/m2
19:29 64.4 °F 53.9 °F 30.12 in WNW 0.2 mph 4 mph 68.7% 0.00 in 0 W/m2
19:34 64.2 °F 53.8 °F 30.12 in WNW 0.1 mph 4 mph 69% 0.00 in 0 W/m2
19:39 64 °F 53.6 °F 30.12 in WNW 0.1 mph 3 mph 69% 0.00 in 0 W/m2
19:44 63.8 °F 53.4 °F 30.13 in WNW 0.2 mph 4 mph 69% 0.00 in 0 W/m2
19:49 63.6 °F 53.5 °F 30.14 in Calm   4 mph 69.6% 0.00 in 0 W/m2
19:54 63.4 °F 53.5 °F 30.14 in WNW 0.2 mph 4 mph 70% 0.00 in 0 W/m2
19:59 63.2 °F 53.2 °F 30.14 in Calm   4 mph 70% 0.00 in 0 W/m2
20:04 62.8 °F 53.3 °F 30.14 in Calm     71% 0.00 in 0 W/m2
20:09 62.7 °F 53.2 °F 30.15 in WNW 0.3 mph 5 mph 71% 0.00 in 0 W/m2
20:14 62.5 °F 53 °F 30.15 in WNW 0.1 mph 5 mph 71% 0.00 in 0 W/m2
20:19 62.3 °F 53.1 °F 30.15 in WNW 0.2 mph 5 mph 71.8% 0.00 in 0 W/m2
20:24 62.2 °F 53.1 °F 30.15 in Calm   5 mph 72% 0.00 in 0 W/m2
20:29 62.1 °F 53.4 °F 30.15 in WNW 0.5 mph 5 mph 72.9% 0.00 in 0 W/m2
20:34 62.1 °F 53.3 °F 30.16 in WNW 0.6 mph 5 mph 73% 0.00 in 0 W/m2
20:39 62.1 °F 53.3 °F 30.16 in Calm   5 mph 73% 0.00 in 0 W/m2
20:44 62 °F 53.3 °F 30.16 in WNW 0.1 mph 5 mph 73% 0.00 in 0 W/m2
20:49 62 °F 53.3 °F 30.16 in Calm   5 mph 73% 0.00 in 0 W/m2
20:54 62 °F 53.2 °F 30.16 in WNW 0.2 mph 5 mph 72.9% 0.00 in 0 W/m2
20:59 62 °F 53.1 °F 30.16 in NW 0.5 mph 6 mph 72.5% 0.00 in 0 W/m2
21:04 62 °F 52.9 °F 30.16 in NW 0.7 mph 6 mph 72% 0.00 in 0 W/m2
21:09 62 °F 52.9 °F 30.16 in NW 1.2 mph 5 mph 72% 0.00 in 0 W/m2
21:14 62 °F 52.9 °F 30.16 in NNW 0.2 mph 5 mph 72% 0.00 in 0 W/m2
21:19 62 °F 52.7 °F 30.17 in NNW 0.3 mph 5 mph 71.6% 0.00 in 0 W/m2
21:24 62 °F 52.6 °F 30.17 in NNW 0.3 mph 5 mph 71.2% 0.00 in 0 W/m2
21:29 62 °F 52.4 °F 30.16 in NW 0.4 mph 5 mph 70.7% 0.00 in 0 W/m2
21:34 62 °F 52.1 °F 30.17 in NW 1.2 mph 6 mph 70% 0.00 in 0 W/m2
21:39 62 °F 52.1 °F 30.17 in NW 0.9 mph 10 mph 70% 0.00 in 0 W/m2
21:44 62 °F 52.1 °F 30.17 in NW 1.1 mph 10 mph 70% 0.00 in 0 W/m2
21:49 61.9 °F 52 °F 30.17 in NW 0.3 mph 10 mph 70% 0.00 in 0 W/m2
21:54 61.8 °F 51.9 °F 30.17 in NW 1 mph 10 mph 70.2% 0.00 in 0 W/m2
21:59 61.5 °F 52 °F 30.17 in NNW 1.1 mph 10 mph 70.9% 0.00 in 0 W/m2
22:04 61.3 °F 51.9 °F 30.17 in NW 0.5 mph 10 mph 71% 0.00 in 0 W/m2
22:09 61.2 °F 51.7 °F 30.18 in NW 0.1 mph 5 mph 71% 0.00 in 0 W/m2
22:14 61.1 °F 51.6 °F 30.18 in Calm   5 mph 71% 0.00 in 0 W/m2
22:19 60.9 °F 51.5 °F 30.18 in Calm   5 mph 71.2% 0.00 in 0 W/m2
22:24 60.8 °F 51.4 °F 30.19 in NW 0.1 mph 5 mph 71.2% 0.00 in 0 W/m2
22:29 60.6 °F 51.5 °F 30.19 in NW 0.3 mph 5 mph 72% 0.00 in 0 W/m2
22:34 60.5 °F 51.5 °F 30.19 in NW 0.2 mph 5 mph 72.1% 0.00 in 0 W/m2
22:39 60.3 °F 51.6 °F 30.19 in NNW 0.1 mph 3 mph 73% 0.00 in 0 W/m2
22:44 60.1 °F 51.5 °F 30.19 in NNW 0.5 mph 6 mph 73.1% 0.00 in 0 W/m2
22:49 59.9 °F 51.6 °F 30.19 in NNW 0.5 mph 6 mph 74% 0.00 in 0 W/m2
22:54 59.7 °F 51.4 °F 30.19 in NNW 0.1 mph 6 mph 74% 0.00 in 0 W/m2
22:59 59.6 °F 51.4 °F 30.19 in NW 0.7 mph 6 mph 74.4% 0.00 in 0 W/m2
23:04 59.5 °F 51.5 °F 30.19 in NNW 1 mph 6 mph 75% 0.00 in 0 W/m2
23:09 59.3 °F 51.5 °F 30.19 in NNW 0.7 mph 5 mph 75.2% 0.00 in 0 W/m2
23:14 59.2 °F 51.6 °F 30.19 in NNW 0.5 mph 5 mph 75.8% 0.00 in 0 W/m2
23:19 59.1 °F 51.6 °F 30.19 in NW 0.6 mph 5 mph 76% 0.00 in 0 W/m2
23:24 59 °F 51.5 °F 30.19 in NW 0.3 mph 5 mph 76% 0.00 in 0 W/m2
23:29 58.9 °F 51.6 °F 30.19 in NW 0.1 mph 5 mph 76.7% 0.00 in 0 W/m2
23:34 58.8 °F 51.6 °F 30.19 in Calm   5 mph 77% 0.00 in 0 W/m2
23:37 58.7 °F 51.5 °F 30.20 in Calm   1 mph 77% 0.00 in 0 W/m2
Hartford County Weather
Compliments of Weather Underground - 4 mb